Time;durP1;ratioP1;P1;durP2;ratioP2;P2;SDS_P1;SDS_P2;PMS_P1;PMS_P2;Temp;Humidity;BMP_temperature;BMP_pressure;BME280_temperature;BME280_humidity;BME280_pressure;Samples;Min_cycle;Max_cycle;Signal;HPM_P1;HPM_P2
2022/11/17 00:00:30;;;;;;;12.23;3.97;;;;;;;8.96;100.00;98784.97;5073311;28;20074;-77
2022/11/17 00:02:55;;;;;;;9.93;3.47;;;;;;;8.95;100.00;98764.75;5072977;28;20040;-78
2022/11/17 00:05:21;;;;;;;7.43;3.92;;;;;;;8.99;100.00;98776.88;5073012;28;20021;-78
2022/11/17 00:07:48;;;;;;;7.47;3.75;;;;;;;8.99;100.00;98767.16;5082238;28;20124;-78
2022/11/17 00:10:15;;;;;;;11.90;3.85;;;;;;;9.00;100.00;98763.63;5071108;28;20044;-78
2022/11/17 00:15:24;;;;;;;9.88;4.18;;;;;;;9.05;100.00;98747.56;5068567;28;20033;-78
2022/11/17 00:21:17;;;;;;;9.88;3.55;;;;;;;9.01;100.00;98740.72;5074373;28;20036;-78
2022/11/17 00:23:24;;;;;;;9.20;3.55;;;;;;;9.03;100.00;98738.84;5072235;28;20456;-77
2022/11/17 00:25:50;;;;;;;8.32;3.83;;;;;;;9.05;100.00;98734.38;5072333;28;20472;-78
2022/11/17 00:28:16;;;;;;;6.53;3.67;;;;;;;9.05;100.00;98729.09;5073832;28;20112;-77
2022/11/17 00:36:10;;;;;;;9.18;3.97;;;;;;;9.04;100.00;98709.72;5070657;28;20036;-77
2022/11/17 00:38:35;;;;;;;11.20;3.67;;;;;;;9.04;100.00;98716.78;5069878;28;20028;-77
2022/11/17 00:41:01;;;;;;;10.18;3.97;;;;;;;9.05;100.00;98700.03;5073868;28;20106;-78
2022/11/17 00:43:26;;;;;;;7.63;3.10;;;;;;;9.09;100.00;98687.53;5072460;28;20046;-78
2022/11/17 00:45:51;;;;;;;9.23;4.10;;;;;;;9.08;100.00;98678.75;5070903;28;20067;-78
2022/11/17 00:48:17;;;;;;;8.30;4.00;;;;;;;9.07;100.00;98694.66;5071112;28;20044;-78
2022/11/17 00:50:42;;;;;;;6.47;3.53;;;;;;;9.07;100.00;98686.75;5065864;28;20048;-78
2022/11/17 00:53:08;;;;;;;7.35;3.53;;;;;;;9.06;100.00;98683.25;5072197;28;20032;-78
2022/11/17 00:55:33;;;;;;;7.18;3.40;;;;;;;9.09;100.00;98683.09;5072503;28;20047;-78
2022/11/17 00:57:59;;;;;;;8.20;3.40;;;;;;;9.08;100.00;98668.19;5070533;28;20198;-78
2022/11/17 01:00:24;;;;;;;7.95;3.53;;;;;;;9.11;100.00;98677.75;5073099;28;20055;-79
2022/11/17 01:02:50;;;;;;;6.15;2.85;;;;;;;9.14;100.00;98667.03;5071621;28;20055;-79
2022/11/17 01:05:15;;;;;;;9.88;3.38;;;;;;;9.11;100.00;98648.69;5071724;28;20037;-78
2022/11/17 01:07:43;;;;;;;5.85;3.20;;;;;;;9.11;100.00;98660.09;5073320;28;20032;-79
2022/11/17 01:10:09;;;;;;;8.27;3.88;;;;;;;9.11;100.00;98639.00;5054872;28;20073;-79
2022/11/17 01:12:34;;;;;;;10.20;3.67;;;;;;;9.15;100.00;98650.22;5071971;28;20036;-78
2022/11/17 01:15:00;;;;;;;5.97;3.55;;;;;;;9.13;100.00;98660.03;5073285;28;20043;-78
2022/11/17 01:17:25;;;;;;;7.03;3.10;;;;;;;9.13;100.00;98654.75;5066492;28;20829;-78
2022/11/17 01:19:51;;;;;;;7.15;3.38;;;;;;;9.12;100.00;98647.75;5067127;28;20408;-78
2022/11/17 01:22:16;;;;;;;7.03;3.17;;;;;;;9.12;100.00;98653.88;5072185;28;20071;-78
2022/11/17 01:24:42;;;;;;;7.00;2.70;;;;;;;9.12;100.00;98630.13;5065165;28;20191;-78
2022/11/17 01:27:07;;;;;;;9.07;3.08;;;;;;;9.17;100.00;98621.97;5065660;28;20041;-80
2022/11/17 01:29:33;;;;;;;3.83;2.33;;;;;;;9.17;100.00;98620.19;5072729;28;20413;-78
2022/11/17 01:31:58;;;;;;;5.50;2.25;;;;;;;9.22;100.00;98627.84;5072474;28;20051;-81
2022/11/17 01:34:24;;;;;;;5.38;2.50;;;;;;;9.20;100.00;98625.31;5069376;28;20040;-79
2022/11/17 01:39:33;;;;;;;5.38;2.80;;;;;;;9.21;100.00;98619.09;5084073;28;20492;-78
2022/11/17 01:42:04;;;;;;;6.88;2.60;;;;;;;9.22;100.00;98610.25;5072393;28;20029;-79
2022/11/17 01:44:57;;;;;;;5.15;2.03;;;;;;;9.26;100.00;98613.56;5070866;28;20144;-80
2022/11/17 01:47:29;;;;;;;3.08;1.50;;;;;;;9.27;100.00;98607.34;5071977;28;20059;-79
2022/11/17 01:50:25;;;;;;;5.25;2.05;;;;;;;9.29;100.00;98607.28;5056851;28;20123;-79
2022/11/17 01:52:54;;;;;;;3.90;1.90;;;;;;;9.28;100.00;98597.66;5062925;28;20051;-79
2022/11/17 01:55:23;;;;;;;2.35;1.60;;;;;;;9.29;100.00;98608.13;5087602;28;20056;-79
2022/11/17 01:57:59;;;;;;;4.88;1.70;;;;;;;9.30;100.00;98595.78;5071982;28;20024;-79
2022/11/17 02:00:26;;;;;;;4.47;2.00;;;;;;;9.30;100.00;98607.22;5072221;28;20039;-79
2022/11/17 02:02:52;;;;;;;4.85;1.90;;;;;;;9.32;100.00;98596.53;5050456;28;20036;-79
2022/11/17 02:05:42;;;;;;;5.00;1.58;;;;;;;9.37;100.00;98591.88;5059781;28;20442;-79
2022/11/17 02:08:09;;;;;;;3.97;2.17;;;;;;;9.37;100.00;98574.25;5070061;28;20033;-79
2022/11/17 02:10:36;;;;;;;3.85;1.70;;;;;;;9.37;100.00;98566.34;5071781;28;20036;-80
2022/11/17 02:13:03;;;;;;;5.82;1.83;;;;;;;9.39;100.00;98571.53;5081371;28;20033;-80
2022/11/17 02:15:29;;;;;;;4.95;1.85;;;;;;;9.39;100.00;98590.84;5061467;28;20041;-79
2022/11/17 02:17:55;;;;;;;3.22;1.80;;;;;;;9.40;100.00;98581.16;5064533;28;20047;-79
2022/11/17 02:20:49;;;;;;;5.32;1.75;;;;;;;9.41;100.00;98607.47;5050609;28;20451;-79
2022/11/17 02:23:26;;;;;;;4.72;1.50;;;;;;;9.42;100.00;98600.41;5071778;28;20051;-79
2022/11/17 02:26:03;;;;;;;3.67;1.83;;;;;;;9.43;100.00;98594.22;5059491;28;20461;-79
2022/11/17 02:28:36;;;;;;;2.25;1.70;;;;;;;9.45;100.00;98593.19;5075059;28;20523;-79
2022/11/17 02:31:23;;;;;;;5.07;1.77;;;;;;;9.51;100.00;98596.44;5068560;28;20056;-79
2022/11/17 02:34:08;;;;;;;3.45;1.70;;;;;;;9.51;100.00;98576.16;5071483;28;20384;-79
2022/11/17 02:36:48;;;;;;;2.38;1.70;;;;;;;9.50;100.00;98553.31;5066432;28;20139;-79
2022/11/17 02:39:21;;;;;;;3.47;1.80;;;;;;;9.51;100.00;98559.44;5077803;28;20029;-79
2022/11/17 02:42:19;;;;;;;4.53;1.92;;;;;;;9.51;100.00;98554.16;5064982;28;20074;-79
2022/11/17 02:44:59;;;;;;;4.60;1.90;;;;;;;9.48;100.00;98542.81;5070158;28;20031;-79
2022/11/17 02:47:30;;;;;;;3.80;1.60;;;;;;;9.47;100.00;98530.56;5059209;28;20489;-79
2022/11/17 02:50:00;;;;;;;3.13;1.73;;;;;;;9.50;100.00;98541.91;5069949;28;20028;-79
2022/11/17 02:52:28;;;;;;;3.92;1.60;;;;;;;9.49;100.00;98527.81;5058533;28;20063;-80
2022/11/17 02:55:05;;;;;;;1.38;1.17;;;;;;;9.49;100.00;98506.69;5064117;28;20021;-80
2022/11/17 02:57:32;;;;;;;3.78;1.80;;;;;;;9.50;100.00;98512.84;5064140;28;20044;-79
2022/11/17 03:00:03;;;;;;;4.22;1.70;;;;;;;9.47;100.00;98506.78;5069564;28;20468;-80
2022/11/17 03:02:43;;;;;;;5.45;1.50;;;;;;;9.47;100.00;98500.66;5056997;28;20033;-79
2022/11/17 03:05:13;;;;;;;2.45;1.35;;;;;;;9.50;100.00;98489.06;5062397;28;20102;-80
2022/11/17 03:07:58;;;;;;;1.75;1.20;;;;;;;9.48;100.00;98495.25;5071105;28;20048;-79
2022/11/17 03:10:42;;;;;;;1.77;1.17;;;;;;;9.52;100.00;98495.09;5036304;28;20055;-79
2022/11/17 03:13:17;;;;;;;2.63;1.33;;;;;;;9.48;100.00;98492.63;5055132;28;20057;-79
2022/11/17 03:16:23;;;;;;;2.50;1.30;;;;;;;9.48;100.00;98491.78;5063416;28;20481;-79
2022/11/17 03:19:05;;;;;;;1.70;1.20;;;;;;;9.45;100.00;98479.59;5024197;28;20463;-78
2022/11/17 03:21:36;;;;;;;3.13;1.40;;;;;;;9.42;100.00;98468.31;5067129;28;20429;-79
2022/11/17 03:24:11;;;;;;;8.13;1.60;;;;;;;9.41;100.00;98458.72;5064592;28;20082;-79
2022/11/17 03:26:47;;;;;;;4.03;1.60;;;;;;;9.40;100.00;98455.22;5066605;28;20083;-79
2022/11/17 03:29:17;;;;;;;1.58;1.38;;;;;;;9.37;100.00;98459.81;5063217;28;20431;-79
2022/11/17 03:31:46;;;;;;;5.43;1.30;;;;;;;9.32;100.00;98460.09;5081354;28;20096;-79
2022/11/17 03:34:15;;;;;;;2.60;1.55;;;;;;;9.26;100.00;98458.59;5063724;28;20124;-79
2022/11/17 03:36:46;;;;;;;3.85;1.15;;;;;;;9.26;100.00;98452.47;5066859;28;20513;-79
2022/11/17 03:39:22;;;;;;;1.73;1.38;;;;;;;9.26;100.00;98442.75;5046474;28;20029;-79
2022/11/17 03:41:54;;;;;;;1.80;1.15;;;;;;;9.24;100.00;98449.06;5088913;28;20029;-79
2022/11/17 03:44:22;;;;;;;1.92;0.95;;;;;;;9.25;100.00;98443.72;5090001;28;20080;-79
2022/11/17 03:46:53;;;;;;;1.05;0.90;;;;;;;9.21;100.00;98446.59;5070854;28;20174;-79
2022/11/17 03:49:24;;;;;;;1.77;0.90;;;;;;;9.21;100.00;98436.03;5074598;28;20043;-79
2022/11/17 03:51:49;;;;;;;;;;;;;;;9.22;100.00;98438.59;5059591;28;20109;-79
2022/11/17 03:54:15;;;;;;;3.45;0.68;;;;;;;9.17;100.00;98431.84;5072959;28;19999;-79
2022/11/17 03:56:49;;;;;;;2.38;1.00;;;;;;;9.18;100.00;98428.28;5066927;28;20037;-79
2022/11/17 03:59:21;;;;;;;3.17;0.98;;;;;;;9.15;100.00;98426.66;5086552;28;20032;-79
2022/11/17 04:01:46;;;;;;;2.83;1.05;;;;;;;9.15;100.00;98421.38;5074265;28;20067;-79
2022/11/17 04:04:18;;;;;;;2.60;1.00;;;;;;;9.15;100.00;98420.50;5070803;28;20476;-78
2022/11/17 04:06:43;;;;;;;;;;;;;;;9.24;100.00;98406.81;5061834;28;20098;-79
2022/11/17 04:09:09;;;;;;;2.15;0.80;;;;;;;9.19;100.00;98403.56;5073257;28;20364;-79
2022/11/17 04:17:02;;;;;;;1.02;0.73;;;;;;;9.28;100.00;98407.50;5065580;28;20051;-79
2022/11/17 04:19:27;;;;;;;1.77;1.25;;;;;;;9.30;100.00;98401.19;5072546;28;20029;-79
2022/11/17 04:21:52;;;;;;;1.75;1.13;;;;;;;9.36;100.00;98413.22;5056076;28;20051;-79
2022/11/17 04:24:18;;;;;;;3.05;1.30;;;;;;;9.37;100.00;98406.97;5063494;28;20033;-79
2022/11/17 04:29:27;;;;;;;2.50;1.67;;;;;;;9.41;100.00;98398.78;5075210;28;20047;-80
2022/11/17 04:31:53;;;;;;;2.63;1.70;;;;;;;9.46;100.00;98409.09;5067121;28;20024;-79
2022/11/17 04:34:19;;;;;;;6.95;1.70;;;;;;;9.46;100.00;98394.09;5073282;28;20050;-79
2022/11/17 04:36:44;;;;;;;2.42;1.70;;;;;;;9.49;100.00;98406.28;5066269;28;20036;-79
2022/11/17 04:39:12;;;;;;;4.15;1.65;;;;;;;9.55;100.00;98413.03;5079781;28;20499;-78
2022/11/17 04:41:53;;;;;;;2.35;1.60;;;;;;;9.55;100.00;98405.97;5059877;28;20033;-78
2022/11/17 04:44:23;;;;;;;1.65;1.30;;;;;;;9.52;100.00;98402.63;5057047;28;20032;-78
2022/11/17 04:46:48;;;;;;;2.13;1.38;;;;;;;9.52;100.00;98392.94;5053715;28;20501;-79
2022/11/17 04:49:15;;;;;;;3.10;1.30;;;;;;;9.48;100.00;98381.66;5061091;28;20062;-79
2022/11/17 04:51:41;;;;;;;3.65;1.33;;;;;;;9.48;100.00;98365.81;5048305;28;20224;-78
2022/11/17 04:54:09;;;;;;;3.75;1.15;;;;;;;9.46;100.00;98372.13;5058865;28;21832;-79
2022/11/17 04:56:35;;;;;;;5.50;1.25;;;;;;;9.51;100.00;98358.66;5065298;28;20157;-78
2022/11/17 04:59:01;;;;;;;8.10;1.38;;;;;;;9.47;100.00;98377.34;5055904;28;20460;-78
2022/11/17 05:01:27;;;;;;;2.00;1.05;;;;;;;9.45;100.00;98362.50;5062116;28;20097;-79
2022/11/17 05:03:55;;;;;;;2.28;1.20;;;;;;;9.45;100.00;98365.16;5055536;28;20492;-79
2022/11/17 05:06:33;;;;;;;5.35;1.10;;;;;;;9.44;100.00;98351.06;5054537;28;20388;-79
2022/11/17 05:09:05;;;;;;;3.05;1.27;;;;;;;9.43;100.00;98367.03;5068008;28;20024;-79
2022/11/17 05:14:17;;;;;;;5.03;1.48;;;;;;;9.41;100.00;98369.75;5071763;28;20506;-80
2022/11/17 05:19:28;;;;;;;3.25;1.48;;;;;;;9.39;100.00;98368.13;5069568;28;20051;-79
2022/11/17 05:21:54;;;;;;;5.13;1.40;;;;;;;9.39;100.00;98357.56;5079123;28;20037;-79
2022/11/17 05:24:20;;;;;;;8.30;1.33;;;;;;;9.38;100.00;98363.78;5064318;28;20029;-79
2022/11/17 05:26:47;;;;;;;3.83;1.27;;;;;;;9.41;100.00;98366.25;5054896;28;20047;-79
2022/11/17 05:29:16;;;;;;;4.38;1.77;;;;;;;9.46;100.00;98380.06;5072404;28;20039;-79
2022/11/17 05:31:42;;;;;;;4.13;1.30;;;;;;;9.44;100.00;98393.34;5071679;28;20020;-79
2022/11/17 05:34:11;;;;;;;1.70;1.08;;;;;;;9.45;100.00;98396.84;5061562;28;20029;-79
2022/11/17 05:36:37;;;;;;;6.15;1.50;;;;;;;9.45;100.00;98400.34;5068322;28;20027;-79
2022/11/17 05:39:03;;;;;;;6.03;1.60;;;;;;;9.45;100.00;98397.69;5072263;28;20409;-78
2022/11/17 05:41:29;;;;;;;5.18;1.50;;;;;;;9.43;100.00;98396.94;5074758;28;20020;-78
2022/11/17 05:43:55;;;;;;;5.88;1.30;;;;;;;9.45;100.00;98400.34;5069586;28;20044;-78
2022/11/17 05:46:21;;;;;;;7.75;1.58;;;;;;;9.47;100.00;98403.75;5073409;28;20064;-78
2022/11/17 05:48:51;;;;;;;6.03;1.20;;;;;;;9.48;100.00;98399.31;5070711;28;20024;-78
2022/11/17 05:51:19;;;;;;;5.78;2.25;;;;;;;9.46;100.00;98398.53;5071704;28;20044;-78
2022/11/17 05:53:44;;;;;;;5.22;1.15;;;;;;;9.47;100.00;98406.41;5071288;28;20043;-78
2022/11/17 05:56:19;;;;;;;6.68;1.50;;;;;;;9.47;100.00;98410.84;5074116;28;20115;-78
2022/11/17 05:58:50;;;;;;;6.03;1.65;;;;;;;9.46;100.00;98407.31;5080102;28;20032;-78
2022/11/17 06:01:18;;;;;;;7.22;1.92;;;;;;;9.45;100.00;98410.91;5073053;28;20031;-78
2022/11/17 06:03:48;;;;;;;8.70;1.88;;;;;;;9.45;100.00;98410.06;5071626;28;20417;-78
2022/11/17 06:06:14;;;;;;;7.65;1.65;;;;;;;9.44;100.00;98405.69;5078401;28;20032;-78
2022/11/17 06:08:40;;;;;;;4.63;1.55;;;;;;;9.45;100.00;98415.34;5080182;28;20136;-78
2022/11/17 06:11:06;;;;;;;5.45;2.00;;;;;;;9.45;100.00;98428.56;5078800;28;20041;-78
2022/11/17 06:13:31;;;;;;;8.43;2.38;;;;;;;9.46;100.00;98412.59;5054170;28;20077;-78
2022/11/17 06:16:00;;;;;;;4.40;1.25;;;;;;;9.45;100.00;98418.84;5042797;28;20068;-78
2022/11/17 06:18:30;;;;;;;8.98;1.83;;;;;;;9.47;100.00;98424.03;5063217;28;20060;-78
2022/11/17 06:20:56;;;;;;;11.70;2.30;;;;;;;9.45;100.00;98418.84;5068628;28;20492;-79
2022/11/17 06:23:25;;;;;;;6.68;1.80;;;;;;;9.45;100.00;98421.47;5068334;28;20070;-79
2022/11/17 06:25:51;;;;;;;7.20;1.90;;;;;;;9.47;100.00;98426.69;5063714;28;20052;-79
2022/11/17 06:28:20;;;;;;;9.35;2.35;;;;;;;9.48;100.00;98434.50;5068343;28;20035;-79
2022/11/17 06:30:46;;;;;;;5.85;1.88;;;;;;;9.48;100.00;98431.88;5071072;28;20060;-78
2022/11/17 06:33:15;;;;;;;8.30;1.77;;;;;;;9.51;100.00;98432.63;5073026;28;20044;-78
2022/11/17 06:35:43;;;;;;;10.55;2.00;;;;;;;9.46;100.00;98435.53;5068747;28;20078;-78
2022/11/17 06:38:09;;;;;;;9.18;1.95;;;;;;;9.50;100.00;98437.06;5076623;28;20024;-79
2022/11/17 06:40:34;;;;;;;11.88;2.33;;;;;;;9.48;100.00;98452.16;5069498;28;20058;-78
2022/11/17 06:43:02;;;;;;;6.85;1.70;;;;;;;9.47;100.00;98451.31;5072048;28;20040;-78
2022/11/17 06:45:33;;;;;;;6.53;1.63;;;;;;;9.47;100.00;98453.94;5075353;28;20049;-79
2022/11/17 06:47:59;;;;;;;9.05;2.10;;;;;;;9.48;100.00;98463.56;5075024;28;20040;-78
2022/11/17 06:50:24;;;;;;;7.82;1.60;;;;;;;9.44;100.00;98443.53;5072472;28;20074;-79
2022/11/17 06:52:50;;;;;;;4.05;1.20;;;;;;;9.44;100.00;98464.66;5070524;28;20060;-78
2022/11/17 06:55:15;;;;;;;5.15;1.30;;;;;;;9.41;100.00;98467.47;5074206;28;20024;-78
2022/11/17 06:57:41;;;;;;;2.80;1.02;;;;;;;9.39;100.00;98476.44;5070184;28;20395;-79
2022/11/17 07:00:07;;;;;;;4.57;1.30;;;;;;;9.38;100.00;98478.22;5057691;28;20384;-78
2022/11/17 07:02:32;;;;;;;5.22;1.50;;;;;;;9.33;100.00;98476.78;5055691;28;20025;-78
2022/11/17 07:04:58;;;;;;;5.50;1.40;;;;;;;9.31;100.00;98479.50;5053734;28;20041;-78
2022/11/17 07:07:23;;;;;;;8.23;1.55;;;;;;;9.29;100.00;98481.34;5065945;28;20021;-79
2022/11/17 07:09:49;;;;;;;5.30;1.63;;;;;;;9.26;100.00;98479.72;5049496;28;20550;-78
2022/11/17 07:12:15;;;;;;;6.22;1.52;;;;;;;9.23;100.00;98482.53;5053503;28;20040;-78
2022/11/17 07:14:41;;;;;;;4.25;1.33;;;;;;;9.24;100.00;98472.81;5053261;28;20120;-79
2022/11/17 07:17:06;;;;;;;7.72;1.70;;;;;;;9.22;100.00;98472.94;5061048;28;20138;-78
2022/11/17 07:19:33;;;;;;;6.88;1.50;;;;;;;9.22;100.00;98485.25;5065125;28;20045;-78
2022/11/17 07:21:58;;;;;;;2.92;1.13;;;;;;;9.19;100.00;98465.16;5057902;28;20043;-79
2022/11/17 07:24:24;;;;;;;5.90;1.40;;;;;;;9.16;100.00;98491.72;5081565;28;20140;-78
2022/11/17 07:26:49;;;;;;;5.75;1.30;;;;;;;9.14;100.00;98490.97;5063386;28;20036;-78
2022/11/17 07:29:14;;;;;;;5.95;1.63;;;;;;;9.14;100.00;98484.81;5075711;28;20044;-78
2022/11/17 07:31:40;;;;;;;5.18;1.23;;;;;;;9.11;100.00;98493.75;5071842;28;20335;-79
2022/11/17 07:34:05;;;;;;;8.27;1.40;;;;;;;9.11;100.00;98503.47;5070947;28;20526;-79
2022/11/17 07:36:32;;;;;;;4.55;1.20;;;;;;;9.09;100.00;98506.19;5072660;28;20028;-79
2022/11/17 07:38:57;;;;;;;4.28;1.15;;;;;;;9.10;100.00;98504.41;5066696;28;20323;-78
2022/11/17 07:41:23;;;;;;;4.03;1.13;;;;;;;9.07;100.00;98499.28;5063033;28;20093;-78
2022/11/17 07:43:48;;;;;;;4.70;1.33;;;;;;;9.06;100.00;98510.78;5071461;28;20029;-78
2022/11/17 07:46:14;;;;;;;4.28;1.30;;;;;;;9.03;100.00;98510.00;5068044;28;20045;-78
2022/11/17 07:48:41;;;;;;;3.15;1.13;;;;;;;9.03;100.00;98515.28;5071219;28;20036;-78
2022/11/17 07:51:07;;;;;;;5.60;1.30;;;;;;;9.02;100.00;98525.94;5064942;28;20097;-79
2022/11/17 07:53:33;;;;;;;6.43;1.88;;;;;;;9.02;100.00;98525.94;5062578;28;20036;-79
2022/11/17 07:56:07;;;;;;;3.22;1.13;;;;;;;9.00;100.00;98533.06;5066771;28;20037;-78
2022/11/17 07:58:33;;;;;;;5.00;1.38;;;;;;;8.99;100.00;98526.94;5083497;28;20121;-79
2022/11/17 08:01:14;;;;;;;3.95;1.20;;;;;;;8.99;100.00;98528.72;5066096;28;20036;-79
2022/11/17 08:03:40;;;;;;;1.88;0.90;;;;;;;8.96;100.00;98540.31;5056151;28;20092;-78
2022/11/17 08:06:08;;;;;;;3.58;1.35;;;;;;;8.98;100.00;98530.53;5049165;28;20143;-79
2022/11/17 08:08:34;;;;;;;5.32;1.23;;;;;;;9.00;100.00;98538.34;5073357;28;20110;-80
2022/11/17 08:11:04;;;;;;;6.53;1.20;;;;;;;8.98;100.00;98541.09;5064810;28;20123;-79
2022/11/17 08:13:29;;;;;;;4.80;1.35;;;;;;;8.99;100.00;98550.69;5067177;28;20032;-79
2022/11/17 08:15:56;;;;;;;3.85;1.15;;;;;;;8.97;100.00;98547.28;5070140;28;20052;-79
2022/11/17 08:18:22;;;;;;;3.67;1.10;;;;;;;9.00;100.00;98539.22;5073325;28;20054;-80
2022/11/17 08:20:47;;;;;;;5.00;1.13;;;;;;;9.04;100.00;98556.59;5063749;28;20024;-79
2022/11/17 08:23:13;;;;;;;5.13;1.25;;;;;;;9.02;100.00;98565.53;5079948;28;20033;-79
2022/11/17 08:25:38;;;;;;;5.60;1.20;;;;;;;9.02;100.00;98563.72;5071669;28;20664;-74
2022/11/17 08:28:04;;;;;;;5.45;1.30;;;;;;;9.04;100.00;98563.66;5069735;28;20036;-75
2022/11/17 08:30:32;;;;;;;6.50;1.15;;;;;;;9.06;100.00;98572.38;5070594;28;20498;-74
2022/11/17 08:32:57;;;;;;;2.67;1.27;;;;;;;9.03;100.00;98568.09;5072020;28;20513;-74
2022/11/17 08:35:24;;;;;;;1.55;0.90;;;;;;;9.03;100.00;98575.16;5067761;28;20120;-75
2022/11/17 08:37:50;;;;;;;7.20;1.17;;;;;;;9.03;100.00;98575.16;5066800;28;20029;-74
2022/11/17 08:40:19;;;;;;;3.20;1.13;;;;;;;9.00;100.00;98581.47;5073873;28;20509;-74
2022/11/17 08:42:45;;;;;;;3.53;1.10;;;;;;;8.99;100.00;98581.53;5072013;28;20124;-74
2022/11/17 08:45:11;;;;;;;5.65;1.25;;;;;;;8.98;100.00;98580.69;5074012;28;20476;-74
2022/11/17 08:47:37;;;;;;;4.55;1.02;;;;;;;8.96;100.00;98581.69;5072526;28;20052;-74
2022/11/17 08:50:05;;;;;;;0.80;0.77;;;;;;;8.96;100.00;98579.06;5073926;28;20356;-74
2022/11/17 08:52:31;;;;;;;3.78;1.05;;;;;;;8.95;100.00;98579.97;5073659;28;20032;-74
2022/11/17 08:54:56;;;;;;;3.80;0.82;;;;;;;8.95;100.00;98595.81;5072462;28;20506;-74
2022/11/17 08:57:22;;;;;;;4.65;1.15;;;;;;;8.93;100.00;98592.41;5063744;28;20032;-75
2022/11/17 08:59:48;;;;;;;5.47;1.15;;;;;;;8.89;100.00;98591.72;5072334;28;20040;-79
2022/11/17 09:02:13;;;;;;;7.68;1.38;;;;;;;8.90;100.00;98596.06;5055702;28;20036;-80
2022/11/17 09:04:39;;;;;;;4.85;1.00;;;;;;;8.88;100.00;98597.06;5073776;28;20043;-79
2022/11/17 09:07:05;;;;;;;7.07;1.55;;;;;;;8.89;100.00;98599.63;5088804;28;20023;-79
2022/11/17 09:09:31;;;;;;;4.63;1.30;;;;;;;8.87;100.00;98606.75;5073632;28;20032;-79
2022/11/17 09:11:58;;;;;;;1.00;0.75;;;;;;;8.87;100.00;98598.84;5068034;28;20119;-79
2022/11/17 09:14:24;;;;;;;3.83;1.25;;;;;;;8.87;100.00;98605.91;5088952;28;20039;-80
2022/11/17 09:16:50;;;;;;;5.32;1.20;;;;;;;8.88;100.00;98607.59;5069316;28;20035;-79
2022/11/17 09:19:15;;;;;;;2.97;1.00;;;;;;;8.89;100.00;98604.91;5064162;28;20334;-79
2022/11/17 09:21:41;;;;;;;4.13;1.13;;;;;;;8.88;100.00;98602.31;5065059;28;20432;-79
2022/11/17 09:24:07;;;;;;;5.05;1.42;;;;;;;8.87;100.00;98621.75;5063053;28;20063;-79
2022/11/17 09:26:32;;;;;;;4.93;1.33;;;;;;;8.86;100.00;98620.06;5059636;28;20055;-79
2022/11/17 09:29:02;;;;;;;2.97;0.82;;;;;;;8.85;100.00;98616.53;5072445;28;20148;-79
2022/11/17 09:31:28;;;;;;;7.78;1.33;;;;;;;8.93;100.00;98624.94;5071936;28;20396;-79
2022/11/17 09:33:53;;;;;;;6.25;1.33;;;;;;;8.91;100.00;98629.44;5051611;28;20041;-80
2022/11/17 09:36:19;;;;;;;3.42;1.10;;;;;;;8.88;100.00;98626.97;5077053;28;20085;-74
2022/11/17 09:38:45;;;;;;;3.05;1.20;;;;;;;8.89;100.00;98630.44;5072696;28;20502;-74
2022/11/17 09:41:21;;;;;;;1.85;0.93;;;;;;;8.89;100.00;98633.94;5072895;28;20345;-74
2022/11/17 09:44:17;;;;;;;5.43;1.13;;;;;;;8.92;100.00;98625.00;5088136;28;20041;-74
2022/11/17 09:47:20;;;;;;;8.38;1.08;;;;;;;8.94;100.00;98644.28;5088082;28;20120;-74
2022/11/17 09:50:19;;;;;;;5.45;1.13;;;;;;;8.96;100.00;98647.69;5072757;28;20306;-75
2022/11/17 09:53:09;;;;;;;6.25;1.25;;;;;;;8.99;100.00;98660.72;5072423;28;20036;-75
2022/11/17 09:55:38;;;;;;;5.85;1.50;;;;;;;9.01;100.00;98653.59;5055926;28;20467;-74
2022/11/17 09:58:12;;;;;;;2.30;0.93;;;;;;;9.03;100.00;98657.00;5067013;28;20036;-74
2022/11/17 10:00:40;;;;;;;3.80;1.15;;;;;;;9.06;100.00;98648.94;5063573;28;20032;-74
2022/11/17 10:03:29;;;;;;;6.28;1.05;;;;;;;9.09;100.00;98653.19;5066333;28;20082;-75
2022/11/17 10:05:57;;;;;;;8.20;1.23;;;;;;;9.10;100.00;98653.13;5071502;28;20483;-75
2022/11/17 10:08:39;;;;;;;4.30;1.10;;;;;;;9.14;100.00;98659.09;5053610;28;20311;-74
2022/11/17 10:11:30;;;;;;;2.80;0.93;;;;;;;9.14;100.00;98667.03;5072263;28;20032;-75
2022/11/17 10:14:08;;;;;;;2.13;0.80;;;;;;;9.15;100.00;98674.00;5071315;28;20059;-79
2022/11/17 10:16:36;;;;;;;5.07;1.35;;;;;;;9.16;100.00;98663.38;5071324;28;20042;-80
2022/11/17 10:19:11;;;;;;;5.82;1.45;;;;;;;9.21;100.00;98663.13;5067510;28;20085;-79
2022/11/17 10:21:36;;;;;;;5.20;1.73;;;;;;;9.24;100.00;98677.03;5064828;28;20036;-80
2022/11/17 10:24:02;;;;;;;3.05;1.00;;;;;;;9.31;100.00;98672.28;5063900;28;20043;-80
2022/11/17 10:26:30;;;;;;;5.28;1.00;;;;;;;9.33;100.00;98678.34;5057388;28;20048;-80
2022/11/17 10:29:05;;;;;;;3.10;0.93;;;;;;;9.38;100.00;98684.25;5070769;28;20044;-81
2022/11/17 10:31:39;;;;;;;3.33;0.95;;;;;;;9.40;100.00;98686.84;5072139;28;20102;-80
2022/11/17 10:34:04;;;;;;;3.20;1.25;;;;;;;9.44;100.00;98677.78;5071873;28;20506;-80
2022/11/17 10:36:31;;;;;;;4.65;1.33;;;;;;;9.44;100.00;98691.84;5062656;28;20044;-81
2022/11/17 10:38:59;;;;;;;3.72;1.08;;;;;;;9.47;100.00;98693.50;5071202;28;20043;-80
2022/11/17 10:41:41;;;;;;;3.35;1.10;;;;;;;9.51;100.00;98695.03;5069284;28;20044;-80
2022/11/17 10:44:26;;;;;;;7.60;1.30;;;;;;;9.56;100.00;98695.66;5080400;28;20029;-80
2022/11/17 10:47:02;;;;;;;2.90;1.05;;;;;;;9.57;100.00;98700.03;5060559;28;20083;-80
2022/11/17 10:49:39;;;;;;;3.38;1.27;;;;;;;9.63;99.84;98698.84;5065591;28;20032;-80
2022/11/17 10:52:15;;;;;;;4.13;1.10;;;;;;;9.67;99.42;98710.97;5061376;28;20028;-80
2022/11/17 10:54:40;;;;;;;5.95;1.35;;;;;;;9.63;99.82;98698.84;5053458;28;20097;-80
2022/11/17 10:57:11;;;;;;;6.35;1.70;;;;;;;9.67;98.23;98709.19;5061461;28;20487;-80
2022/11/17 10:59:53;;;;;;;3.70;1.20;;;;;;;9.74;97.90;98707.03;5066515;28;20087;-80
2022/11/17 11:02:33;;;;;;;2.83;1.08;;;;;;;9.72;98.81;98702.78;5053077;28;20783;-80
2022/11/17 11:05:20;;;;;;;5.78;1.70;;;;;;;9.69;97.88;98712.59;5052840;28;20108;-80
2022/11/17 11:07:45;;;;;;;6.47;1.80;;;;;;;9.77;97.16;98721.91;5067519;28;20036;-80
2022/11/17 11:10:19;;;;;;;2.88;1.00;;;;;;;9.72;97.50;98719.50;5061737;28;20022;-79
2022/11/17 11:13:00;;;;;;;5.45;1.33;;;;;;;9.73;98.73;98717.72;5057474;28;20029;-80
2022/11/17 11:15:33;;;;;;;4.20;0.95;;;;;;;9.74;97.83;98727.34;5061925;28;20126;-79
2022/11/17 11:17:58;;;;;;;5.00;1.63;;;;;;;9.71;98.63;98723.06;5060256;28;20330;-79
2022/11/17 11:20:38;;;;;;;6.25;1.33;;;;;;;9.74;98.50;98724.69;5052642;28;20025;-80
2022/11/17 11:23:25;;;;;;;3.78;1.23;;;;;;;9.79;97.80;98715.63;5061052;28;20067;-79
2022/11/17 11:26:05;;;;;;;12.73;1.50;;;;;;;9.72;98.57;98738.00;5059045;28;20461;-79
2022/11/17 11:28:56;;;;;;;4.88;1.55;;;;;;;9.75;99.55;98731.72;5065923;28;20120;-79
2022/11/17 11:31:39;;;;;;;7.38;1.48;;;;;;;9.73;99.45;98731.78;5075247;28;20051;-79
2022/11/17 11:34:27;;;;;;;4.45;1.10;;;;;;;9.76;100.00;98734.25;5079505;28;20046;-79
2022/11/17 11:36:58;;;;;;;3.45;1.20;;;;;;;9.73;98.30;98734.44;5067788;28;20120;-79
2022/11/17 11:39:38;;;;;;;3.40;1.02;;;;;;;9.73;99.07;98745.00;5072799;28;20384;-79
2022/11/17 11:42:13;;;;;;;8.48;1.55;;;;;;;9.76;99.61;98747.47;5060375;28;20046;-80
2022/11/17 11:44:48;;;;;;;4.97;1.30;;;;;;;9.79;98.44;98751.75;5080158;28;20047;-79
2022/11/17 11:47:20;;;;;;;3.75;1.13;;;;;;;9.76;98.78;98755.41;5052879;28;20769;-79
2022/11/17 11:49:53;;;;;;;2.40;0.93;;;;;;;9.76;98.20;98763.34;5078032;28;20043;-80
2022/11/17 11:52:21;;;;;;;3.83;1.10;;;;;;;9.76;97.79;98765.13;5075362;28;20060;-79
2022/11/17 11:55:28;;;;;;;7.63;1.17;;;;;;;9.78;97.87;98761.47;5084056;28;20055;-79
2022/11/17 11:58:21;;;;;;;5.95;1.40;;;;;;;9.77;98.00;98767.69;5063581;28;20032;-80
2022/11/17 12:00:55;;;;;;;4.97;1.58;;;;;;;9.73;97.25;98762.66;5066811;28;20389;-79
2022/11/17 12:03:41;;;;;;;3.50;1.15;;;;;;;9.77;97.14;98772.16;5069617;28;20158;-79
2022/11/17 12:06:38;;;;;;;5.32;1.30;;;;;;;9.72;98.89;98775.03;5069102;28;20496;-79
2022/11/17 12:09:42;;;;;;;3.67;1.35;;;;;;;9.75;98.97;98774.84;5067022;28;20461;-79
2022/11/17 12:12:13;;;;;;;3.88;1.20;;;;;;;9.74;97.89;98777.56;5066274;28;20032;-79
2022/11/17 12:15:00;;;;;;;4.18;1.15;;;;;;;9.75;98.74;98772.22;5067434;28;20392;-79
2022/11/17 12:17:26;;;;;;;7.03;1.20;;;;;;;9.78;97.34;98782.63;5066651;28;20113;-80